Time;durP1;ratioP1;P1;durP2;ratioP2;P2;SDS_P1;SDS_P2;PMS_P1;PMS_P2;Temp;Humidity;BMP_temperature;BMP_pressure;BME280_temperature;BME280_humidity;BME280_pressure;Samples;Min_cycle;Max_cycle;Signal;HPM_P1;HPM_P2
2023/09/08 00:00:11;;;;;;;5.90;3.20;;;;;;;12.98;61.97;100431.55;106861;1263;67882;-37
2023/09/08 00:02:39;;;;;;;5.80;3.40;;;;;;;12.99;62.13;100432.27;106900;1267;70463;-37
2023/09/08 00:05:07;;;;;;;8.50;4.10;;;;;;;13.00;62.23;100434.70;106831;1263;60090;-37
2023/09/08 00:07:34;;;;;;;9.30;4.30;;;;;;;12.99;62.29;100436.16;106846;1263;59510;-37
2023/09/08 00:10:02;;;;;;;8.00;3.60;;;;;;;13.00;62.60;100440.92;106860;1266;73046;-37
2023/09/08 00:12:29;;;;;;;8.00;4.20;;;;;;;12.97;63.38;100447.31;106867;1263;65606;-36
2023/09/08 00:14:57;;;;;;;7.50;3.60;;;;;;;12.95;63.72;100446.94;106833;1263;71365;-36
2023/09/08 00:17:25;;;;;;;8.50;3.60;;;;;;;12.96;63.99;100449.30;106828;1266;59670;-36
2023/09/08 00:19:52;;;;;;;7.70;3.80;;;;;;;12.96;62.48;100447.84;106942;1263;60046;-37
2023/09/08 00:22:20;;;;;;;7.10;3.80;;;;;;;12.97;60.92;100446.76;106830;1261;73077;-37
2023/09/08 00:24:48;;;;;;;12.90;4.00;;;;;;;12.98;59.70;100445.91;106848;1263;67908;-36
2023/09/08 00:27:15;;;;;;;9.00;4.10;;;;;;;12.97;59.06;100446.45;106842;1263;72744;-36
2023/09/08 00:29:43;;;;;;;8.30;4.20;;;;;;;12.96;58.67;100445.90;106863;1263;60101;-35
2023/09/08 00:32:11;;;;;;;8.30;4.00;;;;;;;12.93;58.41;100442.77;106838;1262;60038;-36
2023/09/08 00:34:40;;;;;;;8.60;4.10;;;;;;;12.91;58.25;100441.95;106860;1263;73058;-37
2023/09/08 00:37:09;;;;;;;9.20;4.40;;;;;;;12.88;58.10;100441.79;106850;1262;66455;-36
2023/09/08 00:39:37;;;;;;;6.70;4.10;;;;;;;12.86;58.02;100441.95;106824;1263;72716;-36
2023/09/08 00:42:06;;;;;;;9.40;4.10;;;;;;;12.84;58.30;100438.08;106813;1268;59680;-36
2023/09/08 00:44:34;;;;;;;7.60;4.40;;;;;;;12.82;58.35;100438.44;106896;1262;60043;-36
2023/09/08 00:47:02;;;;;;;8.10;3.70;;;;;;;12.80;58.42;100439.55;106726;1263;73031;-37
2023/09/08 00:49:29;;;;;;;7.50;4.00;;;;;;;12.79;58.89;100440.20;106748;1262;66300;-37
2023/09/08 00:51:57;;;;;;;6.20;3.40;;;;;;;12.75;59.65;100438.85;106816;1267;72350;-37
2023/09/08 00:54:24;;;;;;;6.20;2.90;;;;;;;12.70;60.02;100436.54;106850;1263;59711;-38
2023/09/08 00:56:56;;;;;;;6.80;3.70;;;;;;;12.64;60.56;100442.05;106842;1263;59515;-38
2023/09/08 00:59:24;;;;;;;9.30;4.30;;;;;;;12.53;61.27;100442.38;106893;1263;73149;-37
2023/09/08 01:01:52;;;;;;;5.50;3.20;;;;;;;12.42;61.93;100441.27;106794;1263;66340;-38
2023/09/08 01:04:20;;;;;;;5.90;3.70;;;;;;;12.37;61.97;100440.52;106869;1262;72722;-35
2023/09/08 01:06:48;;;;;;;7.30;3.40;;;;;;;12.37;62.13;100440.27;106873;1268;60101;-37
2023/09/08 01:09:16;;;;;;;6.10;3.90;;;;;;;12.35;62.22;100437.26;106879;1262;59244;-36
2023/09/08 01:11:45;;;;;;;7.30;3.80;;;;;;;12.33;62.31;100440.53;106832;1268;71936;-37
2023/09/08 01:14:18;;;;;;;8.00;3.60;;;;;;;12.29;62.37;100441.91;106910;1262;66300;-36
2023/09/08 01:16:46;;;;;;;7.90;3.60;;;;;;;12.23;62.59;100440.95;106874;1262;72703;-36
2023/09/08 01:19:14;;;;;;;7.20;4.20;;;;;;;12.19;62.60;100439.28;106879;1263;60110;-37
2023/09/08 01:21:59;;;;;;;8.10;4.30;;;;;;;12.17;62.64;100441.64;106855;1267;59702;-37
2023/09/08 01:24:51;;;;;;;6.00;4.00;;;;;;;12.11;62.95;100443.26;107022;1262;71832;-36
2023/09/08 01:27:19;;;;;;;8.20;3.80;;;;;;;12.08;63.33;100442.92;106857;1267;67711;-36
2023/09/08 01:29:48;;;;;;;8.50;4.20;;;;;;;12.05;63.57;100444.06;106760;1263;72663;-37
2023/09/08 01:32:16;;;;;;;6.10;3.90;;;;;;;12.02;63.85;100448.64;106877;1265;59283;-36
2023/09/08 01:34:45;;;;;;;10.10;3.70;;;;;;;11.98;63.98;100439.13;106855;1261;59495;-36
2023/09/08 01:37:13;;;;;;;7.50;4.00;;;;;;;12.11;64.17;100451.03;106888;1260;73029;-36
2023/09/08 01:39:40;;;;;;;7.70;4.20;;;;;;;12.15;64.41;100448.96;106862;1262;67928;-36
2023/09/08 01:42:08;;;;;;;7.80;4.10;;;;;;;12.14;64.69;100449.11;106846;1261;72673;-37
2023/09/08 01:44:36;;;;;;;7.80;4.00;;;;;;;12.14;64.73;100456.63;106857;1261;60088;-36
2023/09/08 01:47:04;;;;;;;6.00;3.90;;;;;;;12.15;64.84;100451.52;106876;1260;60060;-36
2023/09/08 01:49:31;;;;;;;8.90;4.40;;;;;;;12.16;64.51;100449.77;106925;1263;73166;-36
2023/09/08 01:51:59;;;;;;;10.10;4.60;;;;;;;12.18;64.08;100449.11;106857;1262;66320;-36
2023/09/08 01:54:26;;;;;;;9.50;4.50;;;;;;;12.19;63.61;100452.33;106866;1264;72691;-37
2023/09/08 01:56:55;;;;;;;9.60;5.00;;;;;;;12.19;63.39;100453.05;106925;1261;59693;-37
2023/09/08 01:59:22;;;;;;;7.90;5.10;;;;;;;12.19;63.28;100449.64;106889;1261;60037;-37
2023/09/08 02:01:50;;;;;;;9.90;5.90;;;;;;;12.19;62.96;100442.55;106866;1263;73028;-37
2023/09/08 02:04:17;;;;;;;11.20;5.90;;;;;;;12.16;62.98;100440.74;106844;1265;67807;-37
2023/09/08 02:06:45;;;;;;;10.50;6.10;;;;;;;12.14;63.11;100442.81;106844;1263;71188;-37
2023/09/08 02:09:14;;;;;;;8.80;5.90;;;;;;;12.13;63.12;100444.30;106870;1265;60049;-37
2023/09/08 02:11:42;;;;;;;11.00;6.30;;;;;;;12.10;62.93;100436.62;106880;1261;60034;-37
2023/09/08 02:14:09;;;;;;;11.00;6.60;;;;;;;12.09;62.76;100435.12;106825;1262;73173;-37
2023/09/08 02:16:37;;;;;;;14.30;6.00;;;;;;;12.11;62.72;100434.86;107216;1256;66613;-37
2023/09/08 02:19:05;;;;;;;10.80;6.40;;;;;;;12.16;62.57;100431.06;107204;1261;72718;-37
2023/09/08 02:21:32;;;;;;;12.10;6.10;;;;;;;12.19;62.41;100431.54;107183;1261;60346;-37
2023/09/08 02:24:00;;;;;;;10.20;6.30;;;;;;;12.20;62.38;100429.67;107244;1256;60517;-37
2023/09/08 02:26:29;;;;;;;12.70;5.70;;;;;;;12.21;62.47;100430.86;107106;1257;73860;-37
2023/09/08 02:28:57;;;;;;;10.90;6.00;;;;;;;12.20;62.58;100427.44;107231;1261;66608;-37
2023/09/08 02:31:26;;;;;;;10.40;6.40;;;;;;;12.19;62.62;100423.45;107090;1262;71113;-37
2023/09/08 02:33:54;;;;;;;9.50;6.30;;;;;;;12.17;62.59;100421.30;107148;1260;60553;-37
2023/09/08 02:36:25;;;;;;;11.90;7.00;;;;;;;12.14;62.70;100417.64;107207;1256;60531;-37
2023/09/08 02:38:54;;;;;;;11.50;6.30;;;;;;;12.10;62.87;100416.73;107262;1256;72580;-37
2023/09/08 02:41:22;;;;;;;11.80;6.50;;;;;;;12.07;62.95;100417.10;107127;1262;67887;-37
2023/09/08 02:43:50;;;;;;;15.20;6.60;;;;;;;12.03;62.99;100416.69;107096;1259;71450;-37
2023/09/08 02:46:18;;;;;;;10.40;6.90;;;;;;;12.01;63.02;100417.61;107224;1258;60444;-37
2023/09/08 02:48:45;;;;;;;11.80;7.20;;;;;;;11.97;63.04;100418.89;107248;1257;60377;-37
2023/09/08 02:51:13;;;;;;;11.20;6.50;;;;;;;11.86;63.03;100410.41;106470;1262;1003768;-37
2023/09/08 02:53:41;;;;;;;11.60;6.60;;;;;;;11.91;63.05;100417.33;107276;1256;66500;-37
2023/09/08 02:56:09;;;;;;;11.70;6.40;;;;;;;11.94;63.08;100421.47;107206;1257;73203;-37
2023/09/08 02:58:37;;;;;;;12.00;6.80;;;;;;;11.94;63.11;100418.82;107128;1260;60441;-37
2023/09/08 03:01:15;;;;;;;11.60;6.20;;;;;;;11.95;62.96;100419.77;107208;1260;60754;-37
2023/09/08 03:03:43;;;;;;;9.90;6.70;;;;;;;11.95;63.00;100416.67;107292;1257;73886;-37
2023/09/08 03:06:11;;;;;;;10.50;6.10;;;;;;;11.96;62.91;100415.29;107210;1261;66305;-37
2023/09/08 03:08:39;;;;;;;10.40;6.20;;;;;;;11.95;62.80;100415.27;107240;1260;72143;-37
2023/09/08 03:11:08;;;;;;;9.90;6.00;;;;;;;11.93;62.83;100414.59;107140;1261;60336;-37
2023/09/08 03:13:36;;;;;;;10.70;6.40;;;;;;;11.92;62.84;100410.05;107322;1257;60322;-37
2023/09/08 03:16:07;;;;;;;10.90;6.40;;;;;;;11.89;62.87;100412.62;107224;1260;73849;-37
2023/09/08 03:18:36;;;;;;;9.20;5.70;;;;;;;11.86;63.00;100413.13;107279;1256;66425;-37
2023/09/08 03:21:11;;;;;;;10.70;6.00;;;;;;;11.82;62.93;100414.55;107148;1261;72817;-37
2023/09/08 03:23:39;;;;;;;11.50;6.50;;;;;;;11.78;63.02;100417.31;107127;1262;60394;-37
2023/09/08 03:26:07;;;;;;;12.30;6.90;;;;;;;11.76;63.00;100415.63;107163;1261;60439;-37
2023/09/08 03:28:35;;;;;;;10.10;6.80;;;;;;;11.74;63.03;100420.92;107271;1257;72282;-37
2023/09/08 03:31:03;;;;;;;10.20;5.90;;;;;;;11.76;63.01;100419.96;107292;1260;67884;-37
2023/09/08 03:33:33;;;;;;;11.90;6.60;;;;;;;11.81;63.20;100417.02;107278;1258;72359;-36
2023/09/08 03:36:02;;;;;;;12.40;6.50;;;;;;;11.83;63.34;100414.58;107294;1261;60460;-36
2023/09/08 03:38:29;;;;;;;9.50;5.50;;;;;;;11.84;63.32;100413.68;107316;1261;60331;-37
2023/09/08 03:40:57;;;;;;;10.30;5.80;;;;;;;11.84;63.12;100416.11;107172;1261;72575;-37
2023/09/08 03:43:25;;;;;;;12.80;6.10;;;;;;;11.85;63.05;100414.57;107236;1261;66777;-37
2023/09/08 03:45:52;;;;;;;12.20;6.00;;;;;;;11.84;63.11;100414.70;107258;1261;72664;-37
2023/09/08 03:48:20;;;;;;;11.20;6.00;;;;;;;11.84;63.15;100409.49;107164;1261;60441;-37
2023/09/08 03:50:47;;;;;;;9.30;6.30;;;;;;;11.83;63.17;100412.89;107273;1256;60116;-36
2023/09/08 03:53:15;;;;;;;10.60;6.30;;;;;;;11.84;63.26;100411.41;107234;1256;73666;-37
2023/09/08 03:55:43;;;;;;;11.90;6.70;;;;;;;11.83;63.39;100413.88;107235;1262;67785;-37
2023/09/08 03:58:10;;;;;;;12.10;6.00;;;;;;;11.83;63.54;100413.95;107237;1257;71399;-37
2023/09/08 04:00:39;;;;;;;12.60;6.50;;;;;;;11.81;63.64;100413.69;107201;1262;60107;-37
2023/09/08 04:03:08;;;;;;;10.60;6.10;;;;;;;11.84;63.63;100414.23;107203;1257;60440;-37
2023/09/08 04:05:35;;;;;;;10.80;6.50;;;;;;;11.90;63.49;100414.33;107275;1258;73888;-36
2023/09/08 04:08:05;;;;;;;11.80;5.80;;;;;;;11.93;63.61;100414.44;107265;1260;66300;-37
2023/09/08 04:10:33;;;;;;;11.10;5.90;;;;;;;11.96;63.60;100414.92;107082;1263;71266;-36
2023/09/08 04:13:00;;;;;;;12.10;6.20;;;;;;;11.98;63.72;100414.59;106372;1258;1003069;-36
2023/09/08 04:15:28;;;;;;;8.90;5.40;;;;;;;12.00;63.39;100413.18;107181;1258;60318;-36
2023/09/08 04:17:57;;;;;;;10.50;5.10;;;;;;;11.99;63.40;100416.49;107197;1257;73951;-36
2023/09/08 04:20:25;;;;;;;11.10;5.90;;;;;;;12.00;63.38;100413.31;107221;1258;66294;-36
2023/09/08 04:22:53;;;;;;;10.10;5.30;;;;;;;12.02;63.40;100415.10;107234;1261;71396;-36
2023/09/08 04:25:21;;;;;;;9.30;5.50;;;;;;;12.04;63.42;100414.06;107216;1262;60364;-36
2023/09/08 04:27:49;;;;;;;9.70;5.20;;;;;;;12.05;63.44;100414.17;107235;1259;60368;-36
2023/09/08 04:30:17;;;;;;;8.90;5.20;;;;;;;12.05;63.42;100414.42;107213;1262;73920;-36
2023/09/08 04:32:45;;;;;;;6.30;4.60;;;;;;;12.05;63.33;100414.72;107211;1260;67933;-36
2023/09/08 04:35:13;;;;;;;8.90;5.50;;;;;;;12.05;63.20;100417.52;107216;1257;70473;-37
2023/09/08 04:37:41;;;;;;;9.20;4.70;;;;;;;12.10;63.31;100417.60;107214;1256;60411;-36
2023/09/08 04:40:09;;;;;;;8.20;4.90;;;;;;;12.20;63.01;100421.28;107214;1261;60303;-36
2023/09/08 04:42:37;;;;;;;8.30;4.40;;;;;;;12.26;62.87;100419.45;107080;1257;73333;-36
2023/09/08 04:45:06;;;;;;;11.30;5.10;;;;;;;12.27;62.69;100422.45;107247;1260;66306;-36
2023/09/08 04:47:33;;;;;;;13.20;5.10;;;;;;;12.26;62.74;100419.14;107216;1260;71248;-37
2023/09/08 04:50:01;;;;;;;12.80;5.80;;;;;;;12.29;62.69;100419.86;107179;1257;60412;-36
2023/09/08 04:52:29;;;;;;;8.70;5.10;;;;;;;12.32;62.74;100420.64;107224;1261;60467;-36
2023/09/08 04:54:57;;;;;;;7.00;5.10;;;;;;;12.35;63.02;100416.61;107271;1256;72407;-36
2023/09/08 04:57:25;;;;;;;8.40;5.00;;;;;;;12.41;63.01;100411.95;107269;1258;66395;-36
2023/09/08 04:59:57;;;;;;;8.50;4.90;;;;;;;12.45;63.11;100405.54;107299;1257;71073;-36
2023/09/08 05:02:25;;;;;;;10.90;4.60;;;;;;;12.51;63.09;100406.57;107293;1260;60463;-36
2023/09/08 05:04:53;;;;;;;6.90;4.30;;;;;;;12.56;62.74;100408.73;107232;1258;60444;-36
2023/09/08 05:07:21;;;;;;;8.80;4.90;;;;;;;12.59;62.75;100410.84;107055;1263;73854;-36
2023/09/08 05:09:49;;;;;;;9.00;4.70;;;;;;;12.66;62.80;100408.62;107178;1262;66578;-36
2023/09/08 05:12:16;;;;;;;10.50;5.10;;;;;;;12.75;62.68;100404.57;107068;1263;71354;-36
2023/09/08 05:14:45;;;;;;;10.80;5.30;;;;;;;12.78;62.51;100402.94;107120;1262;60458;-36
2023/09/08 05:17:12;;;;;;;8.00;5.10;;;;;;;12.83;62.71;100402.60;107190;1259;60412;-36
2023/09/08 05:19:40;;;;;;;8.90;5.20;;;;;;;12.90;62.67;100402.46;107098;1259;73837;-36
2023/09/08 05:22:08;;;;;;;8.90;5.10;;;;;;;12.98;62.65;100397.49;107201;1257;66345;-37
2023/09/08 05:24:35;;;;;;;11.70;5.50;;;;;;;13.07;62.68;100397.23;107095;1262;72507;-36
2023/09/08 05:27:04;;;;;;;7.70;5.40;;;;;;;13.18;62.58;100394.29;107126;1261;60206;-36
2023/09/08 05:29:32;;;;;;;8.90;5.00;;;;;;;13.29;62.50;100396.42;107146;1257;60452;-36
2023/09/08 05:32:00;;;;;;;10.30;5.10;;;;;;;13.38;62.21;100392.98;107014;1260;74005;-36
2023/09/08 05:34:28;;;;;;;8.00;4.30;;;;;;;13.45;62.25;100392.84;107179;1259;66410;-36
2023/09/08 05:36:55;;;;;;;9.30;5.10;;;;;;;13.54;61.96;100393.59;107159;1260;71421;-37
2023/09/08 05:39:23;;;;;;;9.60;4.40;;;;;;;13.63;61.70;100393.55;107243;1261;60384;-37
2023/09/08 05:41:51;;;;;;;10.70;4.90;;;;;;;13.70;61.51;100390.08;107115;1257;60264;-37
2023/09/08 05:44:18;;;;;;;7.70;4.40;;;;;;;13.80;61.54;100392.64;107222;1257;73084;-36
2023/09/08 05:46:46;;;;;;;8.00;4.20;;;;;;;13.88;61.38;100389.47;107202;1257;66300;-37
2023/09/08 05:49:14;;;;;;;9.10;4.30;;;;;;;14.00;61.11;100389.02;107146;1258;71474;-36
2023/09/08 05:51:42;;;;;;;9.70;5.00;;;;;;;14.11;60.86;100391.51;107189;1257;60457;-37
2023/09/08 05:54:10;;;;;;;9.80;4.30;;;;;;;14.20;60.43;100390.06;107099;1258;60319;-37
2023/09/08 05:56:38;;;;;;;12.00;4.60;;;;;;;14.29;59.96;100386.76;107133;1258;72630;-37
2023/09/08 05:59:06;;;;;;;9.80;3.90;;;;;;;14.37;59.73;100387.56;107065;1258;67026;-37
2023/09/08 06:01:33;;;;;;;11.70;4.60;;;;;;;14.46;59.53;100383.45;107203;1257;72690;-37
2023/09/08 06:04:02;;;;;;;7.80;4.00;;;;;;;14.56;59.58;100385.66;107090;1257;60387;-36
2023/09/08 06:06:30;;;;;;;6.30;4.40;;;;;;;14.66;59.80;100380.17;107251;1256;62220;-37
2023/09/08 06:08:58;;;;;;;9.50;4.30;;;;;;;14.76;59.43;100379.80;107118;1258;71618;-37
2023/09/08 06:11:26;;;;;;;13.90;4.30;;;;;;;14.87;59.24;100379.13;107224;1257;66327;-37
2023/09/08 06:13:58;;;;;;;13.00;5.00;;;;;;;14.97;59.28;100374.31;107254;1260;71413;-37
2023/09/08 06:16:30;;;;;;;10.70;4.00;;;;;;;15.07;59.03;100375.29;107184;1257;60420;-37
2023/09/08 06:18:58;;;;;;;8.80;4.50;;;;;;;15.18;58.49;100375.15;107173;1257;60974;-37
2023/09/08 06:21:26;;;;;;;9.10;3.50;;;;;;;15.29;58.13;100373.14;107255;1260;72639;-37
2023/09/08 06:23:54;;;;;;;7.80;4.00;;;;;;;15.41;58.07;100376.30;107225;1258;66298;-35
2023/09/08 06:26:22;;;;;;;7.50;3.50;;;;;;;15.54;57.52;100376.20;107183;1257;71423;-36
2023/09/08 06:28:50;;;;;;;10.00;3.50;;;;;;;15.68;57.44;100379.23;107153;1257;60405;-37
2023/09/08 06:31:17;;;;;;;7.90;3.40;;;;;;;15.83;56.39;100379.38;107204;1257;60569;-36
2023/09/08 06:33:45;;;;;;;5.70;2.90;;;;;;;15.97;55.25;100378.63;107194;1258;72781;-37
2023/09/08 06:36:13;;;;;;;10.30;3.20;;;;;;;16.10;54.61;100376.20;107228;1257;67910;-36
2023/09/08 06:38:40;;;;;;;5.90;3.10;;;;;;;16.22;54.32;100377.54;107185;1257;72449;-36
2023/09/08 06:41:11;;;;;;;7.80;3.10;;;;;;;16.33;53.83;100373.38;107206;1257;60431;-36
2023/09/08 06:43:38;;;;;;;7.00;3.40;;;;;;;16.45;53.30;100373.66;107304;1258;60424;-36
2023/09/08 06:46:13;;;;;;;7.30;3.30;;;;;;;16.60;53.64;100371.34;107198;1260;72570;-36
2023/09/08 06:48:41;;;;;;;7.40;3.40;;;;;;;16.75;53.61;100367.44;107258;1257;66609;-36
2023/09/08 06:51:09;;;;;;;6.60;2.90;;;;;;;16.90;53.10;100366.09;107259;1260;71438;-37
2023/09/08 06:53:38;;;;;;;6.20;3.30;;;;;;;17.05;52.84;100364.59;107205;1257;60589;-37
2023/09/08 06:56:06;;;;;;;7.30;3.00;;;;;;;17.21;52.30;100367.38;107253;1257;60458;-37
2023/09/08 06:58:34;;;;;;;8.10;3.00;;;;;;;17.36;51.69;100367.02;107249;1258;74020;-37
2023/09/08 07:01:03;;;;;;;6.80;3.30;;;;;;;17.50;50.15;100362.59;107200;1257;66311;-37
2023/09/08 07:03:36;;;;;;;11.60;4.10;;;;;;;17.62;50.16;100365.59;107178;1257;72736;-37
2023/09/08 07:06:06;;;;;;;5.00;2.60;;;;;;;17.76;49.74;100361.92;107175;1257;60441;-37
2023/09/08 07:08:35;;;;;;;7.50;2.70;;;;;;;17.89;49.01;100360.19;107241;1260;59168;-37
2023/09/08 07:11:03;;;;;;;8.10;3.40;;;;;;;18.02;48.53;100356.57;107232;1257;74008;-37
2023/09/08 07:13:31;;;;;;;5.60;2.60;;;;;;;18.16;48.11;100356.06;107194;1257;67910;-37
2023/09/08 07:15:59;;;;;;;5.50;2.60;;;;;;;18.29;47.93;100357.23;107243;1260;71418;-37
2023/09/08 07:18:27;;;;;;;4.60;2.40;;;;;;;18.41;47.46;100360.24;107281;1257;60225;-37
2023/09/08 07:20:55;;;;;;;4.70;2.30;;;;;;;18.52;46.70;100360.84;107181;1257;60376;-37
2023/09/08 07:23:24;;;;;;;4.40;2.50;;;;;;;18.62;46.87;100360.33;107327;1257;72557;-37
2023/09/08 07:25:51;;;;;;;6.60;2.30;;;;;;;18.68;46.59;100347.55;107198;1257;66319;-37
2023/09/08 07:28:22;;;;;;;4.50;2.10;;;;;;;18.89;45.98;100357.07;107190;1257;70084;-37
2023/09/08 07:31:03;;;;;;;3.70;2.00;;;;;;;19.03;44.87;100357.02;107139;1258;60326;-37
2023/09/08 07:33:32;;;;;;;6.10;2.20;;;;;;;19.15;44.95;100352.77;107269;1258;60424;-37
2023/09/08 07:36:07;;;;;;;3.60;2.20;;;;;;;19.28;44.45;100353.95;107203;1256;72040;-37
2023/09/08 07:38:34;;;;;;;5.70;2.00;;;;;;;19.38;42.90;100348.59;107232;1257;65833;-37
2023/09/08 07:41:03;;;;;;;6.70;2.40;;;;;;;19.46;42.81;100343.27;107220;1258;71389;-37
2023/09/08 07:43:31;;;;;;;5.50;2.20;;;;;;;19.55;42.42;100342.31;107158;1260;60463;-40
2023/09/08 07:45:59;;;;;;;3.50;2.10;;;;;;;19.66;41.94;100345.27;107216;1260;62296;-42
2023/09/08 07:48:26;;;;;;;3.50;2.10;;;;;;;19.77;41.99;100343.52;107340;1257;73870;-42
2023/09/08 07:50:54;;;;;;;5.80;2.20;;;;;;;19.87;41.74;100334.84;107252;1257;70282;-44
2023/09/08 07:53:22;;;;;;;4.70;2.00;;;;;;;19.95;41.34;100331.59;107220;1256;72686;-43
2023/09/08 07:55:49;;;;;;;3.70;2.00;;;;;;;20.04;41.45;100329.73;107214;1257;60485;-42
2023/09/08 07:58:17;;;;;;;4.80;2.10;;;;;;;20.16;41.25;100332.28;107241;1257;60461;-43
2023/09/08 08:00:44;;;;;;;2.40;1.60;;;;;;;20.28;40.88;100326.96;107260;1257;72354;-43
2023/09/08 08:03:12;;;;;;;3.90;1.80;;;;;;;20.41;40.65;100318.10;107232;1257;66296;-39
2023/09/08 08:05:40;;;;;;;3.30;1.80;;;;;;;20.54;40.08;100318.42;107270;1260;72689;-41
2023/09/08 08:08:09;;;;;;;3.80;1.80;;;;;;;20.61;39.85;100320.73;107254;1256;60103;-41
2023/09/08 08:10:37;;;;;;;3.00;2.00;;;;;;;20.68;39.58;100317.93;107292;1258;60453;-41
2023/09/08 08:13:05;;;;;;;4.50;1.70;;;;;;;20.75;39.93;100314.73;107305;1257;73900;-41
2023/09/08 08:15:40;;;;;;;5.80;1.80;;;;;;;20.86;39.41;100317.16;107264;1257;65306;-41
2023/09/08 08:18:09;;;;;;;7.60;2.00;;;;;;;20.92;39.37;100314.45;107272;1260;71375;-41
2023/09/08 08:20:37;;;;;;;4.40;2.00;;;;;;;20.97;39.21;100308.02;107244;1258;60411;-41
2023/09/08 08:23:06;;;;;;;5.00;1.90;;;;;;;21.02;39.25;100302.30;107277;1257;60447;-41
2023/09/08 08:25:33;;;;;;;3.90;2.00;;;;;;;21.10;39.64;100298.45;107327;1257;72631;-41
2023/09/08 08:28:01;;;;;;;4.50;1.80;;;;;;;21.22;39.23;100292.00;107240;1255;66608;-41
2023/09/08 08:30:29;;;;;;;3.50;2.00;;;;;;;21.34;38.43;100291.09;107231;1257;72804;-41
2023/09/08 08:32:56;;;;;;;5.10;1.60;;;;;;;21.42;37.82;100283.52;107251;1256;60371;-41
2023/09/08 08:35:24;;;;;;;5.70;1.70;;;;;;;21.45;38.07;100274.75;107251;1255;60502;-41
2023/09/08 08:37:52;;;;;;;2.90;1.60;;;;;;;21.49;38.50;100272.16;107260;1256;72917;-41
2023/09/08 08:40:20;;;;;;;6.00;1.90;;;;;;;21.55;38.06;100271.09;107271;1255;66307;-41
2023/09/08 08:42:47;;;;;;;14.10;2.80;;;;;;;21.60;37.60;100269.60;107310;1257;72699;-41
2023/09/08 08:45:15;;;;;;;9.20;2.40;;;;;;;21.66;37.24;100269.53;107178;1262;60377;-41
2023/09/08 08:47:43;;;;;;;7.50;2.00;;;;;;;21.74;37.79;100272.67;107192;1257;60379;-41
2023/09/08 08:50:11;;;;;;;10.00;2.80;;;;;;;21.81;37.59;100268.73;107292;1256;72674;-41
2023/09/08 08:52:39;;;;;;;3.70;1.90;;;;;;;21.86;37.30;100271.42;107211;1257;67723;-42
2023/09/08 08:55:08;;;;;;;6.00;2.50;;;;;;;21.91;37.29;100267.96;107262;1255;72695;-41
2023/09/08 08:57:39;;;;;;;2.90;1.60;;;;;;;22.00;37.37;100270.86;107289;1257;60557;-42
2023/09/08 09:00:11;;;;;;;3.70;1.90;;;;;;;22.12;36.60;100270.80;107283;1257;60310;-41
2023/09/08 09:02:40;;;;;;;2.80;1.70;;;;;;;22.21;35.64;100265.86;107318;1257;73846;-41
2023/09/08 09:05:15;;;;;;;3.50;1.70;;;;;;;22.24;35.94;100270.87;107322;1255;66627;-42
2023/09/08 09:07:43;;;;;;;21.00;4.20;;;;;;;22.25;35.61;100265.73;107201;1258;72648;-41
2023/09/08 09:10:11;;;;;;;14.70;2.50;;;;;;;22.26;35.60;100269.96;107287;1260;60438;-42
2023/09/08 09:12:39;;;;;;;4.20;2.00;;;;;;;22.33;35.80;100265.29;107281;1257;60381;-41
2023/09/08 09:15:11;;;;;;;6.00;2.10;;;;;;;22.49;36.42;100265.27;107273;1256;73833;-41
2023/09/08 09:17:39;;;;;;;3.80;1.80;;;;;;;22.70;36.45;100263.87;107305;1257;66310;-41
2023/09/08 09:20:17;;;;;;;2.70;1.70;;;;;;;22.88;36.46;100257.50;107249;1258;74886;-41
2023/09/08 09:22:45;;;;;;;4.20;2.20;;;;;;;23.08;36.19;100253.58;107270;1257;60467;-42
2023/09/08 09:25:23;;;;;;;2.60;1.50;;;;;;;23.26;34.41;100254.20;107259;1260;60461;-42
2023/09/08 09:27:55;;;;;;;3.50;2.10;;;;;;;23.34;34.02;100250.88;107298;1257;72644;-42
2023/09/08 09:30:23;;;;;;;6.20;1.90;;;;;;;23.39;34.08;100249.46;107300;1257;67929;-42
2023/09/08 09:33:04;;;;;;;4.40;2.00;;;;;;;23.45;33.83;100246.59;107222;1260;72653;-42
2023/09/08 09:35:46;;;;;;;4.60;2.00;;;;;;;23.52;33.47;100238.00;107279;1256;60725;-42
2023/09/08 09:38:13;;;;;;;3.50;1.70;;;;;;;23.60;33.77;100230.40;107275;1256;60456;-42
2023/09/08 09:40:41;;;;;;;4.90;2.30;;;;;;;23.70;33.97;100232.64;107262;1256;73874;-42
2023/09/08 09:43:11;;;;;;;7.00;2.00;;;;;;;23.79;33.53;100225.88;107280;1256;67650;-41
2023/09/08 09:45:39;;;;;;;;;;;;;;;23.90;33.48;100227.18;107238;1256;72686;-42
2023/09/08 09:48:08;;;;;;;11.80;3.30;;;;;;;24.04;33.29;100216.41;107242;1257;60577;-41
2023/09/08 09:50:41;;;;;;;6.70;2.00;;;;;;;24.19;33.17;100210.69;107299;1255;60558;-41
2023/09/08 09:53:10;;;;;;;4.00;1.80;;;;;;;24.31;32.99;100208.44;107273;1256;73906;-41
2023/09/08 09:55:40;;;;;;;5.50;1.90;;;;;;;24.47;32.54;100211.54;107255;1257;70122;-42
2023/09/08 09:58:10;;;;;;;5.00;1.70;;;;;;;24.58;31.47;100210.89;107289;1260;72115;-42
2023/09/08 10:00:40;;;;;;;4.40;1.80;;;;;;;24.65;31.59;100214.43;107296;1257;61708;-42
2023/09/08 10:03:08;;;;;;;2.90;1.80;;;;;;;24.71;31.60;100210.33;107262;1256;60526;-42
2023/09/08 10:05:37;;;;;;;5.60;2.10;;;;;;;24.82;31.03;100206.64;107240;1257;72250;-42
2023/09/08 10:08:05;;;;;;;3.10;1.70;;;;;;;24.85;30.83;100200.20;107225;1257;67615;-41
2023/09/08 10:10:34;;;;;;;8.30;1.80;;;;;;;24.91;31.01;100191.36;107176;1256;72484;-42
2023/09/08 10:13:03;;;;;;;3.40;1.70;;;;;;;24.99;29.90;100187.75;107196;1256;60316;-41
2023/09/08 10:15:31;;;;;;;4.20;1.80;;;;;;;24.97;30.18;100186.84;107302;1256;60454;-41
2023/09/08 10:17:59;;;;;;;3.30;1.70;;;;;;;25.04;30.54;100185.15;107229;1256;73868;-42
2023/09/08 10:20:28;;;;;;;6.20;1.80;;;;;;;25.13;30.59;100173.41;107268;1256;67574;-42
2023/09/08 10:23:17;;;;;;;3.30;1.80;;;;;;;25.30;30.36;100181.31;107260;1256;72671;-42
2023/09/08 10:28:22;;;;;;;4.80;2.10;;;;;;;25.55;29.69;100168.73;104264;1292;600365;-41
2023/09/08 10:30:50;;;;;;;5.10;1.90;;;;;;;25.73;29.83;100166.39;106602;1270;61010;-41
2023/09/08 10:33:17;;;;;;;6.80;1.70;;;;;;;25.89;29.52;100159.61;106731;1267;59162;-41
2023/09/08 10:35:45;;;;;;;7.00;2.20;;;;;;;26.08;28.76;100159.02;106594;1269;73569;-41
2023/09/08 10:38:28;;;;;;;3.60;1.70;;;;;;;26.29;28.60;100156.06;106621;1272;67613;-41
2023/09/08 10:41:17;;;;;;;2.90;1.70;;;;;;;26.50;28.81;100152.04;106585;1263;197204;-41
2023/09/08 10:43:56;;;;;;;2.50;1.80;;;;;;;26.61;27.50;100144.98;106829;1263;62124;-41
2023/09/08 10:46:26;;;;;;;4.70;1.70;;;;;;;26.62;27.84;100148.55;106852;1268;59212;-41
2023/09/08 10:48:58;;;;;;;3.60;2.00;;;;;;;26.58;27.16;100141.21;106853;1264;70830;-41
2023/09/08 10:51:26;;;;;;;5.60;1.90;;;;;;;26.53;27.66;100139.63;106764;1268;68260;-42
2023/09/08 10:53:53;;;;;;;3.10;1.50;;;;;;;26.58;27.80;100137.55;106801;1269;72805;-42
2023/09/08 10:56:21;;;;;;;3.40;2.00;;;;;;;26.71;27.41;100133.58;106806;1268;60119;-41
2023/09/08 10:58:51;;;;;;;5.20;1.80;;;;;;;26.91;27.44;100133.71;106752;1268;59717;-42
2023/09/08 11:01:26;;;;;;;3.80;1.60;;;;;;;27.12;27.07;100128.96;106787;1268;73109;-42
2023/09/08 11:03:54;;;;;;;3.40;1.60;;;;;;;27.38;27.28;100127.44;106756;1267;68215;-42
2023/09/08 11:06:23;;;;;;;3.80;2.00;;;;;;;27.59;26.91;100124.04;106765;1268;72300;-42
2023/09/08 11:08:55;;;;;;;3.80;1.60;;;;;;;27.84;26.29;100123.38;106822;1264;60103;-42
2023/09/08 11:11:23;;;;;;;4.00;2.10;;;;;;;27.99;26.21;100118.45;106833;1264;59752;-42
2023/09/08 11:13:51;;;;;;;5.50;1.80;;;;;;;28.12;25.87;100115.40;106840;1268;71886;-42
2023/09/08 11:16:23;;;;;;;3.20;1.90;;;;;;;28.24;25.97;100114.20;106843;1264;66306;-42
2023/09/08 11:18:51;;;;;;;5.20;1.90;;;;;;;28.44;25.66;100106.36;106844;1264;73606;-42
2023/09/08 11:21:19;;;;;;;5.60;2.00;;;;;;;28.69;25.32;100113.83;106846;1268;60085;-42
2023/09/08 11:23:46;;;;;;;3.50;1.90;;;;;;;28.82;24.85;100104.55;106859;1269;59759;-42